sensor_id;sensor_type;location;lat;lon;timestamp;temperature;humidity
84397;DHT22;74595;48.846;2.358;2024-01-30T00:01:15;9.60;71.60
84397;DHT22;74595;48.846;2.358;2024-01-30T00:03:41;9.70;70.40
84397;DHT22;74595;48.846;2.358;2024-01-30T00:06:07;9.90;69.70
84397;DHT22;74595;48.846;2.358;2024-01-30T00:08:33;9.90;69.40
84397;DHT22;74595;48.846;2.358;2024-01-30T00:10:59;9.80;70.00
84397;DHT22;74595;48.846;2.358;2024-01-30T00:13:24;9.70;71.00
84397;DHT22;74595;48.846;2.358;2024-01-30T00:15:50;9.80;70.40
84397;DHT22;74595;48.846;2.358;2024-01-30T00:18:16;10.00;69.20
84397;DHT22;74595;48.846;2.358;2024-01-30T00:20:41;10.10;68.60
84397;DHT22;74595;48.846;2.358;2024-01-30T00:23:08;10.10;68.20
84397;DHT22;74595;48.846;2.358;2024-01-30T00:25:34;10.10;68.40
84397;DHT22;74595;48.846;2.358;2024-01-30T00:28:00;10.20;67.40
84397;DHT22;74595;48.846;2.358;2024-01-30T00:30:25;10.10;67.50
84397;DHT22;74595;48.846;2.358;2024-01-30T00:32:51;10.10;67.70
84397;DHT22;74595;48.846;2.358;2024-01-30T00:35:16;10.20;67.50
84397;DHT22;74595;48.846;2.358;2024-01-30T00:37:42;10.20;67.50
84397;DHT22;74595;48.846;2.358;2024-01-30T00:40:08;10.20;67.70
84397;DHT22;74595;48.846;2.358;2024-01-30T00:42:35;10.20;67.70
84397;DHT22;74595;48.846;2.358;2024-01-30T00:45:01;10.30;67.40
84397;DHT22;74595;48.846;2.358;2024-01-30T00:47:27;10.30;66.90
84397;DHT22;74595;48.846;2.358;2024-01-30T00:49:54;10.30;67.40
84397;DHT22;74595;48.846;2.358;2024-01-30T00:52:20;10.10;68.20
84397;DHT22;74595;48.846;2.358;2024-01-30T00:54:45;10.00;68.80
84397;DHT22;74595;48.846;2.358;2024-01-30T00:57:11;10.10;68.50
84397;DHT22;74595;48.846;2.358;2024-01-30T00:59:36;10.20;68.00
84397;DHT22;74595;48.846;2.358;2024-01-30T01:02:03;10.30;67.70
84397;DHT22;74595;48.846;2.358;2024-01-30T01:04:29;10.30;68.20
84397;DHT22;74595;48.846;2.358;2024-01-30T01:06:55;10.20;68.80
84397;DHT22;74595;48.846;2.358;2024-01-30T01:09:20;10.20;68.90
84397;DHT22;74595;48.846;2.358;2024-01-30T01:11:46;10.30;68.20
84397;DHT22;74595;48.846;2.358;2024-01-30T01:14:11;10.30;68.60
84397;DHT22;74595;48.846;2.358;2024-01-30T01:16:37;10.40;68.00
84397;DHT22;74595;48.846;2.358;2024-01-30T01:19:03;10.50;67.60
84397;DHT22;74595;48.846;2.358;2024-01-30T01:21:28;10.60;66.50
84397;DHT22;74595;48.846;2.358;2024-01-30T01:23:54;10.50;67.30
84397;DHT22;74595;48.846;2.358;2024-01-30T01:26:20;10.40;67.80
84397;DHT22;74595;48.846;2.358;2024-01-30T01:28:46;10.30;68.40
84397;DHT22;74595;48.846;2.358;2024-01-30T01:31:12;10.10;69.20
84397;DHT22;74595;48.846;2.358;2024-01-30T01:33:38;10.00;69.60
84397;DHT22;74595;48.846;2.358;2024-01-30T01:36:03;10.30;68.50
84397;DHT22;74595;48.846;2.358;2024-01-30T01:38:29;10.40;67.80
84397;DHT22;74595;48.846;2.358;2024-01-30T01:40:55;10.50;66.90
84397;DHT22;74595;48.846;2.358;2024-01-30T01:43:21;10.50;66.50
84397;DHT22;74595;48.846;2.358;2024-01-30T01:45:46;10.10;67.20
84397;DHT22;74595;48.846;2.358;2024-01-30T01:48:12;10.10;67.20
84397;DHT22;74595;48.846;2.358;2024-01-30T01:50:39;9.80;68.30
84397;DHT22;74595;48.846;2.358;2024-01-30T01:53:07;9.40;69.40
84397;DHT22;74595;48.846;2.358;2024-01-30T01:55:33;9.20;71.60
84397;DHT22;74595;48.846;2.358;2024-01-30T01:58:00;9.30;71.30
84397;DHT22;74595;48.846;2.358;2024-01-30T02:00:25;9.60;70.00
84397;DHT22;74595;48.846;2.358;2024-01-30T02:02:51;9.70;69.00
84397;DHT22;74595;48.846;2.358;2024-01-30T02:05:19;9.90;68.20
84397;DHT22;74595;48.846;2.358;2024-01-30T02:07:46;9.90;67.80
84397;DHT22;74595;48.846;2.358;2024-01-30T02:10:12;10.10;67.30
84397;DHT22;74595;48.846;2.358;2024-01-30T02:12:38;9.80;67.90
84397;DHT22;74595;48.846;2.358;2024-01-30T02:15:04;9.70;69.20
84397;DHT22;74595;48.846;2.358;2024-01-30T02:17:30;9.80;68.60
84397;DHT22;74595;48.846;2.358;2024-01-30T02:19:56;10.00;67.50
84397;DHT22;74595;48.846;2.358;2024-01-30T02:22:22;9.40;69.20
84397;DHT22;74595;48.846;2.358;2024-01-30T02:24:49;9.30;70.40
84397;DHT22;74595;48.846;2.358;2024-01-30T02:27:14;9.30;69.90
84397;DHT22;74595;48.846;2.358;2024-01-30T02:29:40;9.30;69.90
84397;DHT22;74595;48.846;2.358;2024-01-30T02:32:06;9.40;69.20
84397;DHT22;74595;48.846;2.358;2024-01-30T02:34:33;9.40;69.10
84397;DHT22;74595;48.846;2.358;2024-01-30T02:36:58;9.10;70.60
84397;DHT22;74595;48.846;2.358;2024-01-30T02:39:24;9.00;70.90
84397;DHT22;74595;48.846;2.358;2024-01-30T02:41:50;9.20;70.60
84397;DHT22;74595;48.846;2.358;2024-01-30T02:44:16;9.40;70.00
84397;DHT22;74595;48.846;2.358;2024-01-30T02:46:41;8.40;73.10
84397;DHT22;74595;48.846;2.358;2024-01-30T02:49:07;8.90;72.10
84397;DHT22;74595;48.846;2.358;2024-01-30T02:51:33;8.80;72.40
84397;DHT22;74595;48.846;2.358;2024-01-30T02:53:59;9.10;71.00
84397;DHT22;74595;48.846;2.358;2024-01-30T02:56:24;9.10;71.10
84397;DHT22;74595;48.846;2.358;2024-01-30T02:58:50;9.20;70.60
84397;DHT22;74595;48.846;2.358;2024-01-30T03:01:15;9.30;70.00
84397;DHT22;74595;48.846;2.358;2024-01-30T03:03:41;9.30;69.70
84397;DHT22;74595;48.846;2.358;2024-01-30T03:06:08;9.50;68.80
84397;DHT22;74595;48.846;2.358;2024-01-30T03:08:34;9.60;68.10
84397;DHT22;74595;48.846;2.358;2024-01-30T03:11:00;9.80;67.60
84397;DHT22;74595;48.846;2.358;2024-01-30T03:13:26;9.90;66.90
84397;DHT22;74595;48.846;2.358;2024-01-30T03:15:51;10.00;65.50
84397;DHT22;74595;48.846;2.358;2024-01-30T03:18:17;9.80;66.00
84397;DHT22;74595;48.846;2.358;2024-01-30T03:20:43;9.90;65.80
84397;DHT22;74595;48.846;2.358;2024-01-30T03:23:09;10.00;65.40
84397;DHT22;74595;48.846;2.358;2024-01-30T03:25:34;10.10;65.50
84397;DHT22;74595;48.846;2.358;2024-01-30T03:28:00;10.10;65.60
84397;DHT22;74595;48.846;2.358;2024-01-30T03:30:26;10.10;65.50
84397;DHT22;74595;48.846;2.358;2024-01-30T03:32:51;10.10;64.90
84397;DHT22;74595;48.846;2.358;2024-01-30T03:35:18;10.10;64.90
84397;DHT22;74595;48.846;2.358;2024-01-30T03:37:44;10.20;64.00
84397;DHT22;74595;48.846;2.358;2024-01-30T03:40:10;10.20;63.90
84397;DHT22;74595;48.846;2.358;2024-01-30T03:42:36;10.20;63.70
84397;DHT22;74595;48.846;2.358;2024-01-30T03:45:01;10.20;63.50
84397;DHT22;74595;48.846;2.358;2024-01-30T03:47:27;10.20;63.20
84397;DHT22;74595;48.846;2.358;2024-01-30T03:49:53;10.10;63.10
84397;DHT22;74595;48.846;2.358;2024-01-30T03:52:19;10.10;63.00
84397;DHT22;74595;48.846;2.358;2024-01-30T03:54:44;10.30;62.50
84397;DHT22;74595;48.846;2.358;2024-01-30T03:57:10;10.30;63.50
84397;DHT22;74595;48.846;2.358;2024-01-30T03:59:36;10.10;63.40
84397;DHT22;74595;48.846;2.358;2024-01-30T04:02:02;10.20;63.00
84397;DHT22;74595;48.846;2.358;2024-01-30T04:04:27;10.20;63.20
84397;DHT22;74595;48.846;2.358;2024-01-30T04:06:53;10.20;63.20
84397;DHT22;74595;48.846;2.358;2024-01-30T04:09:19;10.10;65.20
84397;DHT22;74595;48.846;2.358;2024-01-30T04:11:44;10.20;63.90
84397;DHT22;74595;48.846;2.358;2024-01-30T04:14:10;10.20;63.90
84397;DHT22;74595;48.846;2.358;2024-01-30T04:16:36;10.30;63.80
84397;DHT22;74595;48.846;2.358;2024-01-30T04:19:02;10.30;63.90
84397;DHT22;74595;48.846;2.358;2024-01-30T04:21:27;10.30;64.20
84397;DHT22;74595;48.846;2.358;2024-01-30T04:23:53;10.30;64.30
84397;DHT22;74595;48.846;2.358;2024-01-30T04:26:19;10.40;64.10
84397;DHT22;74595;48.846;2.358;2024-01-30T04:28:45;10.50;64.00
84397;DHT22;74595;48.846;2.358;2024-01-30T04:31:11;10.40;64.30
84397;DHT22;74595;48.846;2.358;2024-01-30T04:33:37;10.40;65.40
84397;DHT22;74595;48.846;2.358;2024-01-30T04:36:03;10.40;65.70
84397;DHT22;74595;48.846;2.358;2024-01-30T04:38:29;10.40;65.50
84397;DHT22;74595;48.846;2.358;2024-01-30T04:40:54;10.40;65.50
84397;DHT22;74595;48.846;2.358;2024-01-30T04:43:20;10.50;65.50
84397;DHT22;74595;48.846;2.358;2024-01-30T04:45:47;10.50;65.80
84397;DHT22;74595;48.846;2.358;2024-01-30T04:48:12;10.50;65.60
84397;DHT22;74595;48.846;2.358;2024-01-30T04:50:39;10.60;65.80
84397;DHT22;74595;48.846;2.358;2024-01-30T04:53:04;10.40;67.30
84397;DHT22;74595;48.846;2.358;2024-01-30T04:55:30;10.10;69.20
84397;DHT22;74595;48.846;2.358;2024-01-30T04:57:55;9.90;70.70
84397;DHT22;74595;48.846;2.358;2024-01-30T05:00:21;9.90;70.50
84397;DHT22;74595;48.846;2.358;2024-01-30T05:02:46;9.90;70.70
84397;DHT22;74595;48.846;2.358;2024-01-30T05:05:12;9.90;70.90
84397;DHT22;74595;48.846;2.358;2024-01-30T05:07:40;10.10;69.40
84397;DHT22;74595;48.846;2.358;2024-01-30T05:10:06;10.30;68.90
84397;DHT22;74595;48.846;2.358;2024-01-30T05:12:32;10.30;68.90
84397;DHT22;74595;48.846;2.358;2024-01-30T05:14:57;10.40;68.40
84397;DHT22;74595;48.846;2.358;2024-01-30T05:17:23;10.50;67.90
84397;DHT22;74595;48.846;2.358;2024-01-30T05:19:49;10.40;68.10
84397;DHT22;74595;48.846;2.358;2024-01-30T05:22:14;10.40;67.10
84397;DHT22;74595;48.846;2.358;2024-01-30T05:24:41;10.50;66.50
84397;DHT22;74595;48.846;2.358;2024-01-30T05:27:08;10.40;66.70
84397;DHT22;74595;48.846;2.358;2024-01-30T05:29:33;10.40;66.40
84397;DHT22;74595;48.846;2.358;2024-01-30T05:31:59;10.50;66.30
84397;DHT22;74595;48.846;2.358;2024-01-30T05:34:25;10.50;66.30
84397;DHT22;74595;48.846;2.358;2024-01-30T05:36:50;10.60;66.40
84397;DHT22;74595;48.846;2.358;2024-01-30T05:39:16;10.60;66.70
84397;DHT22;74595;48.846;2.358;2024-01-30T05:41:41;10.60;66.50
84397;DHT22;74595;48.846;2.358;2024-01-30T05:44:07;10.70;66.50
84397;DHT22;74595;48.846;2.358;2024-01-30T05:46:33;10.60;66.50
84397;DHT22;74595;48.846;2.358;2024-01-30T05:48:59;10.70;66.50
84397;DHT22;74595;48.846;2.358;2024-01-30T05:51:24;10.60;66.70
84397;DHT22;74595;48.846;2.358;2024-01-30T05:53:50;10.60;66.80
84397;DHT22;74595;48.846;2.358;2024-01-30T05:56:16;10.70;66.60
84397;DHT22;74595;48.846;2.358;2024-01-30T05:58:41;10.70;66.70
84397;DHT22;74595;48.846;2.358;2024-01-30T06:01:08;10.70;66.60
84397;DHT22;74595;48.846;2.358;2024-01-30T06:03:34;10.60;67.30
84397;DHT22;74595;48.846;2.358;2024-01-30T06:06:00;9.50;71.10
84397;DHT22;74595;48.846;2.358;2024-01-30T06:08:26;9.20;72.40
84397;DHT22;74595;48.846;2.358;2024-01-30T06:10:51;8.80;73.70
84397;DHT22;74595;48.846;2.358;2024-01-30T06:13:17;8.70;74.00
84397;DHT22;74595;48.846;2.358;2024-01-30T06:15:43;8.60;74.80
84397;DHT22;74595;48.846;2.358;2024-01-30T06:18:08;8.40;75.50
84397;DHT22;74595;48.846;2.358;2024-01-30T06:20:34;8.40;75.60
84397;DHT22;74595;48.846;2.358;2024-01-30T06:23:00;8.40;76.30
84397;DHT22;74595;48.846;2.358;2024-01-30T06:25:26;8.40;75.60
84397;DHT22;74595;48.846;2.358;2024-01-30T06:27:51;8.60;74.70
84397;DHT22;74595;48.846;2.358;2024-01-30T06:30:18;8.80;73.90
84397;DHT22;74595;48.846;2.358;2024-01-30T06:32:44;9.10;72.50
84397;DHT22;74595;48.846;2.358;2024-01-30T06:35:09;9.30;71.70
84397;DHT22;74595;48.846;2.358;2024-01-30T06:37:36;9.40;70.70
84397;DHT22;74595;48.846;2.358;2024-01-30T06:40:02;9.60;72.00
84397;DHT22;74595;48.846;2.358;2024-01-30T06:42:30;9.60;70.60
84397;DHT22;74595;48.846;2.358;2024-01-30T06:44:55;9.60;70.40
84397;DHT22;74595;48.846;2.358;2024-01-30T06:47:21;9.60;70.30
84397;DHT22;74595;48.846;2.358;2024-01-30T06:49:47;9.40;72.30
84397;DHT22;74595;48.846;2.358;2024-01-30T06:52:12;9.60;70.60
84397;DHT22;74595;48.846;2.358;2024-01-30T06:54:38;9.80;70.40
84397;DHT22;74595;48.846;2.358;2024-01-30T06:57:05;9.90;70.30
84397;DHT22;74595;48.846;2.358;2024-01-30T06:59:34;9.70;70.60
84397;DHT22;74595;48.846;2.358;2024-01-30T07:02:00;9.60;71.40
84397;DHT22;74595;48.846;2.358;2024-01-30T07:04:25;9.30;72.50
84397;DHT22;74595;48.846;2.358;2024-01-30T07:06:51;9.10;73.50
84397;DHT22;74595;48.846;2.358;2024-01-30T07:09:18;9.20;73.60
84397;DHT22;74595;48.846;2.358;2024-01-30T07:11:44;8.60;75.70
84397;DHT22;74595;48.846;2.358;2024-01-30T07:14:10;8.60;75.60
84397;DHT22;74595;48.846;2.358;2024-01-30T07:16:35;8.40;75.50
84397;DHT22;74595;48.846;2.358;2024-01-30T07:19:01;8.40;76.30
84397;DHT22;74595;48.846;2.358;2024-01-30T07:21:27;8.50;76.10
84397;DHT22;74595;48.846;2.358;2024-01-30T07:23:57;8.80;76.00
84397;DHT22;74595;48.846;2.358;2024-01-30T07:26:23;9.10;76.20
84397;DHT22;74595;48.846;2.358;2024-01-30T07:28:48;9.40;74.10
84397;DHT22;74595;48.846;2.358;2024-01-30T07:31:15;9.50;72.60
84397;DHT22;74595;48.846;2.358;2024-01-30T07:33:41;9.80;71.90
84397;DHT22;74595;48.846;2.358;2024-01-30T07:36:06;10.00;71.50
84397;DHT22;74595;48.846;2.358;2024-01-30T07:38:32;10.10;71.20
84397;DHT22;74595;48.846;2.358;2024-01-30T07:40:58;10.20;71.00
84397;DHT22;74595;48.846;2.358;2024-01-30T07:43:23;10.40;70.30
84397;DHT22;74595;48.846;2.358;2024-01-30T07:45:49;10.60;69.80
84397;DHT22;74595;48.846;2.358;2024-01-30T07:48:15;10.60;70.50
84397;DHT22;74595;48.846;2.358;2024-01-30T07:50:40;10.70;70.10
84397;DHT22;74595;48.846;2.358;2024-01-30T07:53:06;10.70;69.90
84397;DHT22;74595;48.846;2.358;2024-01-30T07:55:32;10.70;71.20
84397;DHT22;74595;48.846;2.358;2024-01-30T07:57:58;10.60;70.40
84397;DHT22;74595;48.846;2.358;2024-01-30T08:00:24;10.50;71.50
84397;DHT22;74595;48.846;2.358;2024-01-30T08:02:50;10.10;72.90
84397;DHT22;74595;48.846;2.358;2024-01-30T08:05:15;10.10;73.90
84397;DHT22;74595;48.846;2.358;2024-01-30T08:07:41;10.60;71.70
84397;DHT22;74595;48.846;2.358;2024-01-30T08:10:11;10.20;72.40
84397;DHT22;74595;48.846;2.358;2024-01-30T08:12:37;10.40;72.20
84397;DHT22;74595;48.846;2.358;2024-01-30T08:15:04;10.60;70.80
84397;DHT22;74595;48.846;2.358;2024-01-30T08:17:30;10.80;70.60
84397;DHT22;74595;48.846;2.358;2024-01-30T08:19:55;11.20;68.80
84397;DHT22;74595;48.846;2.358;2024-01-30T08:22:21;11.30;69.00
84397;DHT22;74595;48.846;2.358;2024-01-30T08:24:47;11.60;66.80
84397;DHT22;74595;48.846;2.358;2024-01-30T08:27:12;11.70;66.60
84397;DHT22;74595;48.846;2.358;2024-01-30T08:29:38;12.00;65.60
84397;DHT22;74595;48.846;2.358;2024-01-30T08:32:06;11.70;66.30
84397;DHT22;74595;48.846;2.358;2024-01-30T08:34:32;11.60;65.90
84397;DHT22;74595;48.846;2.358;2024-01-30T08:36:58;11.40;67.90
84397;DHT22;74595;48.846;2.358;2024-01-30T08:39:24;11.60;67.40
84397;DHT22;74595;48.846;2.358;2024-01-30T08:41:50;11.70;68.10
84397;DHT22;74595;48.846;2.358;2024-01-30T08:44:16;11.50;68.60
84397;DHT22;74595;48.846;2.358;2024-01-30T08:46:41;11.70;69.00
84397;DHT22;74595;48.846;2.358;2024-01-30T08:49:07;11.90;67.30
84397;DHT22;74595;48.846;2.358;2024-01-30T08:51:33;11.40;67.10
84397;DHT22;74595;48.846;2.358;2024-01-30T08:53:59;11.70;68.10
84397;DHT22;74595;48.846;2.358;2024-01-30T08:56:25;12.40;67.20
84397;DHT22;74595;48.846;2.358;2024-01-30T08:58:51;12.60;65.80
84397;DHT22;74595;48.846;2.358;2024-01-30T09:01:16;12.90;64.70
84397;DHT22;74595;48.846;2.358;2024-01-30T09:03:42;12.80;62.50
84397;DHT22;74595;48.846;2.358;2024-01-30T09:06:11;13.00;61.90
84397;DHT22;74595;48.846;2.358;2024-01-30T09:08:37;12.40;63.50
84397;DHT22;74595;48.846;2.358;2024-01-30T09:11:10;12.10;62.70
84397;DHT22;74595;48.846;2.358;2024-01-30T09:13:36;11.70;66.30
84397;DHT22;74595;48.846;2.358;2024-01-30T09:16:02;12.20;64.40
84397;DHT22;74595;48.846;2.358;2024-01-30T09:18:27;11.70;66.10
84397;DHT22;74595;48.846;2.358;2024-01-30T09:20:53;12.20;66.20
84397;DHT22;74595;48.846;2.358;2024-01-30T09:23:18;12.20;63.90
84397;DHT22;74595;48.846;2.358;2024-01-30T09:25:45;12.40;63.80
84397;DHT22;74595;48.846;2.358;2024-01-30T09:28:10;12.10;64.90
84397;DHT22;74595;48.846;2.358;2024-01-30T09:30:36;12.00;66.40
84397;DHT22;74595;48.846;2.358;2024-01-30T09:33:02;11.80;67.20
84397;DHT22;74595;48.846;2.358;2024-01-30T09:35:28;12.50;64.70
84397;DHT22;74595;48.846;2.358;2024-01-30T09:37:55;12.80;63.90
84397;DHT22;74595;48.846;2.358;2024-01-30T09:40:20;13.40;61.40
84397;DHT22;74595;48.846;2.358;2024-01-30T09:42:53;13.70;60.10
84397;DHT22;74595;48.846;2.358;2024-01-30T09:45:19;13.70;59.90
84397;DHT22;74595;48.846;2.358;2024-01-30T09:47:45;13.50;60.60
84397;DHT22;74595;48.846;2.358;2024-01-30T09:50:15;13.20;61.20
84397;DHT22;74595;48.846;2.358;2024-01-30T09:52:41;13.10;63.40
84397;DHT22;74595;48.846;2.358;2024-01-30T09:55:07;12.70;62.20
84397;DHT22;74595;48.846;2.358;2024-01-30T09:57:37;13.40;60.50
84397;DHT22;74595;48.846;2.358;2024-01-30T10:00:03;12.60;63.50
84397;DHT22;74595;48.846;2.358;2024-01-30T10:02:31;12.50;63.20
84397;DHT22;74595;48.846;2.358;2024-01-30T10:04:57;12.40;64.20
84397;DHT22;74595;48.846;2.358;2024-01-30T10:07:23;12.50;63.20
84397;DHT22;74595;48.846;2.358;2024-01-30T10:09:48;12.40;65.20
84397;DHT22;74595;48.846;2.358;2024-01-30T10:12:15;12.80;63.00
84397;DHT22;74595;48.846;2.358;2024-01-30T10:14:42;13.10;61.80
84397;DHT22;74595;48.846;2.358;2024-01-30T10:17:08;14.40;59.20
84397;DHT22;74595;48.846;2.358;2024-01-30T10:19:39;16.40;53.30
84397;DHT22;74595;48.846;2.358;2024-01-30T10:22:05;16.10;51.60
84397;DHT22;74595;48.846;2.358;2024-01-30T10:24:31;15.50;52.30
84397;DHT22;74595;48.846;2.358;2024-01-30T10:26:57;14.50;55.80
84397;DHT22;74595;48.846;2.358;2024-01-30T10:29:24;13.40;57.50
84397;DHT22;74595;48.846;2.358;2024-01-30T10:32:06;13.40;59.30
84397;DHT22;74595;48.846;2.358;2024-01-30T10:34:32;13.70;59.80
84397;DHT22;74595;48.846;2.358;2024-01-30T10:37:08;14.20;57.80
84397;DHT22;74595;48.846;2.358;2024-01-30T10:39:44;12.70;60.30
84397;DHT22;74595;48.846;2.358;2024-01-30T10:42:17;12.50;62.20
84397;DHT22;74595;48.846;2.358;2024-01-30T10:45:13;13.40;61.20
84397;DHT22;74595;48.846;2.358;2024-01-30T10:47:42;12.70;62.50
84397;DHT22;74595;48.846;2.358;2024-01-30T10:50:08;12.40;64.30
84397;DHT22;74595;48.846;2.358;2024-01-30T10:52:36;12.20;64.90
84397;DHT22;74595;48.846;2.358;2024-01-30T10:55:04;12.30;65.30
84397;DHT22;74595;48.846;2.358;2024-01-30T10:57:34;12.40;64.90
84397;DHT22;74595;48.846;2.358;2024-01-30T11:00:10;12.30;64.70
84397;DHT22;74595;48.846;2.358;2024-01-30T11:02:44;13.20;62.40
84397;DHT22;74595;48.846;2.358;2024-01-30T11:05:11;13.10;61.20
84397;DHT22;74595;48.846;2.358;2024-01-30T11:07:39;13.70;59.20
84397;DHT22;74595;48.846;2.358;2024-01-30T11:10:05;13.50;58.80
84397;DHT22;74595;48.846;2.358;2024-01-30T11:12:38;14.00;58.00
84397;DHT22;74595;48.846;2.358;2024-01-30T11:15:13;14.50;56.20
84397;DHT22;74595;48.846;2.358;2024-01-30T11:20:16;15.50;53.20
84397;DHT22;74595;48.846;2.358;2024-01-30T11:22:48;15.20;51.80
84397;DHT22;74595;48.846;2.358;2024-01-30T11:26:18;15.20;51.70
84397;DHT22;74595;48.846;2.358;2024-01-30T11:28:52;15.00;53.20
84397;DHT22;74595;48.846;2.358;2024-01-30T11:31:19;15.20;53.40
84397;DHT22;74595;48.846;2.358;2024-01-30T11:33:44;15.60;52.90
84397;DHT22;74595;48.846;2.358;2024-01-30T11:36:11;15.60;51.10
84397;DHT22;74595;48.846;2.358;2024-01-30T11:38:38;16.50;49.00
84397;DHT22;74595;48.846;2.358;2024-01-30T11:41:04;17.50;47.70
84397;DHT22;74595;48.846;2.358;2024-01-30T11:43:30;17.80;46.10
84397;DHT22;74595;48.846;2.358;2024-01-30T11:45:56;17.70;46.00
84397;DHT22;74595;48.846;2.358;2024-01-30T11:48:21;17.50;46.40
84397;DHT22;74595;48.846;2.358;2024-01-30T11:50:48;17.20;46.60
84397;DHT22;74595;48.846;2.358;2024-01-30T11:53:16;17.10;47.70
84397;DHT22;74595;48.846;2.358;2024-01-30T11:55:41;17.10;47.70
84397;DHT22;74595;48.846;2.358;2024-01-30T11:58:08;17.00;47.70
84397;DHT22;74595;48.846;2.358;2024-01-30T12:00:34;16.90;47.90
84397;DHT22;74595;48.846;2.358;2024-01-30T12:02:59;16.90;47.90
84397;DHT22;74595;48.846;2.358;2024-01-30T12:05:26;17.10;47.70
84397;DHT22;74595;48.846;2.358;2024-01-30T12:07:52;17.20;47.00
84397;DHT22;74595;48.846;2.358;2024-01-30T12:10:18;16.20;46.80
84397;DHT22;74595;48.846;2.358;2024-01-30T12:12:51;16.30;48.10
84397;DHT22;74595;48.846;2.358;2024-01-30T12:15:18;16.10;48.60
84397;DHT22;74595;48.846;2.358;2024-01-30T12:17:44;16.30;48.60
84397;DHT22;74595;48.846;2.358;2024-01-30T12:20:13;16.20;48.90
84397;DHT22;74595;48.846;2.358;2024-01-30T12:22:44;16.20;49.90
84397;DHT22;74595;48.846;2.358;2024-01-30T12:25:14;16.10;49.90
84397;DHT22;74595;48.846;2.358;2024-01-30T12:27:43;16.00;50.30
84397;DHT22;74595;48.846;2.358;2024-01-30T12:30:13;15.70;50.50
84397;DHT22;74595;48.846;2.358;2024-01-30T12:32:41;15.60;51.10
84397;DHT22;74595;48.846;2.358;2024-01-30T12:35:15;15.50;51.40
84397;DHT22;74595;48.846;2.358;2024-01-30T12:37:44;15.30;52.30
84397;DHT22;74595;48.846;2.358;2024-01-30T12:40:11;15.20;52.50
84397;DHT22;74595;48.846;2.358;2024-01-30T12:42:38;15.10;53.40
84397;DHT22;74595;48.846;2.358;2024-01-30T12:45:05;14.90;52.90
84397;DHT22;74595;48.846;2.358;2024-01-30T12:47:31;15.10;52.80
84397;DHT22;74595;48.846;2.358;2024-01-30T12:49:57;15.20;52.20
84397;DHT22;74595;48.846;2.358;2024-01-30T12:52:23;14.90;53.10
84397;DHT22;74595;48.846;2.358;2024-01-30T12:54:49;15.00;52.50
84397;DHT22;74595;48.846;2.358;2024-01-30T12:57:15;15.00;52.50
84397;DHT22;74595;48.846;2.358;2024-01-30T12:59:42;14.90;52.30
84397;DHT22;74595;48.846;2.358;2024-01-30T13:02:07;14.90;52.30
84397;DHT22;74595;48.846;2.358;2024-01-30T13:04:34;14.90;52.30
84397;DHT22;74595;48.846;2.358;2024-01-30T13:07:00;14.60;53.00
84397;DHT22;74595;48.846;2.358;2024-01-30T13:09:26;14.80;52.60
84397;DHT22;74595;48.846;2.358;2024-01-30T13:11:52;14.90;52.40
84397;DHT22;74595;48.846;2.358;2024-01-30T13:14:18;14.90;52.70
84397;DHT22;74595;48.846;2.358;2024-01-30T13:16:44;14.70;53.00
84397;DHT22;74595;48.846;2.358;2024-01-30T13:19:10;14.80;53.10
84397;DHT22;74595;48.846;2.358;2024-01-30T13:21:36;14.90;53.00
84397;DHT22;74595;48.846;2.358;2024-01-30T13:24:01;14.80;53.00
84397;DHT22;74595;48.846;2.358;2024-01-30T13:26:27;15.00;52.30
84397;DHT22;74595;48.846;2.358;2024-01-30T13:28:53;14.70;52.00
84397;DHT22;74595;48.846;2.358;2024-01-30T13:31:19;14.90;52.50
84397;DHT22;74595;48.846;2.358;2024-01-30T13:33:45;15.00;51.40
84397;DHT22;74595;48.846;2.358;2024-01-30T13:36:11;14.80;51.40
84397;DHT22;74595;48.846;2.358;2024-01-30T13:38:37;15.00;51.40
84397;DHT22;74595;48.846;2.358;2024-01-30T13:41:03;15.10;51.80
84397;DHT22;74595;48.846;2.358;2024-01-30T13:43:29;15.10;51.50
84397;DHT22;74595;48.846;2.358;2024-01-30T13:45:55;15.10;51.30
84397;DHT22;74595;48.846;2.358;2024-01-30T13:48:20;14.80;51.60
84397;DHT22;74595;48.846;2.358;2024-01-30T13:50:47;15.00;51.40
84397;DHT22;74595;48.846;2.358;2024-01-30T13:53:13;15.10;51.70
84397;DHT22;74595;48.846;2.358;2024-01-30T13:55:39;14.70;52.50
84397;DHT22;74595;48.846;2.358;2024-01-30T13:58:05;14.50;52.90
84397;DHT22;74595;48.846;2.358;2024-01-30T14:00:31;14.10;53.80
84397;DHT22;74595;48.846;2.358;2024-01-30T14:02:57;14.40;54.10
84397;DHT22;74595;48.846;2.358;2024-01-30T14:05:24;14.50;53.50
84397;DHT22;74595;48.846;2.358;2024-01-30T14:07:51;14.60;53.30
84397;DHT22;74595;48.846;2.358;2024-01-30T14:10:17;14.50;53.80
84397;DHT22;74595;48.846;2.358;2024-01-30T14:12:43;14.20;54.50
84397;DHT22;74595;48.846;2.358;2024-01-30T14:15:09;14.20;54.60
84397;DHT22;74595;48.846;2.358;2024-01-30T14:17:38;14.00;54.90
84397;DHT22;74595;48.846;2.358;2024-01-30T14:20:04;14.10;55.20
84397;DHT22;74595;48.846;2.358;2024-01-30T14:22:30;14.30;55.00
84397;DHT22;74595;48.846;2.358;2024-01-30T14:24:56;13.90;55.70
84397;DHT22;74595;48.846;2.358;2024-01-30T14:27:22;14.20;55.50
84397;DHT22;74595;48.846;2.358;2024-01-30T14:29:48;14.30;55.20
84397;DHT22;74595;48.846;2.358;2024-01-30T14:32:14;14.30;54.90
84397;DHT22;74595;48.846;2.358;2024-01-30T14:34:39;14.10;55.80
84397;DHT22;74595;48.846;2.358;2024-01-30T14:37:05;14.10;55.80
84397;DHT22;74595;48.846;2.358;2024-01-30T14:39:31;14.30;55.40
84397;DHT22;74595;48.846;2.358;2024-01-30T14:41:57;14.30;55.10
84397;DHT22;74595;48.846;2.358;2024-01-30T14:44:22;14.20;55.10
84397;DHT22;74595;48.846;2.358;2024-01-30T14:46:48;14.10;55.60
84397;DHT22;74595;48.846;2.358;2024-01-30T14:49:14;14.20;55.30
84397;DHT22;74595;48.846;2.358;2024-01-30T14:51:41;14.20;55.30
84397;DHT22;74595;48.846;2.358;2024-01-30T14:54:07;14.10;55.00
84397;DHT22;74595;48.846;2.358;2024-01-30T14:56:32;14.20;55.30
84397;DHT22;74595;48.846;2.358;2024-01-30T14:58:58;14.20;55.70
84397;DHT22;74595;48.846;2.358;2024-01-30T15:01:24;14.20;55.50
84397;DHT22;74595;48.846;2.358;2024-01-30T15:03:50;14.20;55.80
84397;DHT22;74595;48.846;2.358;2024-01-30T15:06:18;14.30;55.60
84397;DHT22;74595;48.846;2.358;2024-01-30T15:08:44;14.30;55.60
84397;DHT22;74595;48.846;2.358;2024-01-30T15:11:10;14.30;55.60
84397;DHT22;74595;48.846;2.358;2024-01-30T15:13:36;14.30;55.40
84397;DHT22;74595;48.846;2.358;2024-01-30T15:16:05;14.30;55.20
84397;DHT22;74595;48.846;2.358;2024-01-30T15:18:31;14.30;55.10
84397;DHT22;74595;48.846;2.358;2024-01-30T15:20:57;14.30;55.70
84397;DHT22;74595;48.846;2.358;2024-01-30T15:23:22;14.20;55.30
84397;DHT22;74595;48.846;2.358;2024-01-30T15:25:48;14.30;55.20
84397;DHT22;74595;48.846;2.358;2024-01-30T15:28:14;14.20;55.20
84397;DHT22;74595;48.846;2.358;2024-01-30T15:30:40;14.30;55.30
84397;DHT22;74595;48.846;2.358;2024-01-30T15:33:09;14.00;56.00